createdAt,value
2018-03-31T00:00:58.305Z,76.22
2018-03-31T00:03:24.348Z,76.64
2018-03-31T00:05:50.391Z,78.70
2018-03-31T00:08:16.556Z,78.01
2018-03-31T00:10:42.603Z,79.01
2018-03-31T00:13:08.757Z,79.02
2018-03-31T00:15:34.789Z,78.28
2018-03-31T00:18:01.604Z,76.99
2018-03-31T00:20:27.684Z,76.85
2018-03-31T00:22:53.711Z,76.21
2018-03-31T00:25:19.758Z,76.16
2018-03-31T00:27:45.855Z,75.61
2018-03-31T00:30:12.014Z,75.26
2018-03-31T00:32:38.997Z,75.53
2018-03-31T00:35:05.029Z,75.36
2018-03-31T00:37:31.113Z,76.39
2018-03-31T00:39:57.180Z,75.91
2018-03-31T00:42:23.417Z,75.43
2018-03-31T00:44:49.611Z,75.50
2018-03-31T00:47:15.665Z,74.63
2018-03-31T00:49:41.691Z,74.91
2018-03-31T00:52:07.800Z,74.74
2018-03-31T00:54:33.847Z,75.34
2018-03-31T00:56:59.974Z,75.74
2018-03-31T00:59:26.040Z,76.46
2018-03-31T01:01:52.068Z,76.71
2018-03-31T01:04:18.144Z,79.06
2018-03-31T01:06:44.186Z,79.76
2018-03-31T01:09:10.220Z,78.98
2018-03-31T01:11:36.308Z,78.50
2018-03-31T01:14:02.344Z,77.65
2018-03-31T01:16:28.366Z,78.18
2018-03-31T01:18:54.561Z,78.39
2018-03-31T01:21:20.621Z,79.44
2018-03-31T01:23:46.675Z,79.10
2018-03-31T01:26:12.747Z,78.25
2018-03-31T01:28:38.915Z,79.04
2018-03-31T01:31:04.960Z,79.47
2018-03-31T01:33:31.104Z,78.96
2018-03-31T01:35:57.490Z,78.73
2018-03-31T01:38:23.500Z,78.52
2018-03-31T01:40:49.525Z,77.70
2018-03-31T01:43:16.497Z,78.53
2018-03-31T01:45:42.549Z,77.56
2018-03-31T01:48:08.605Z,77.80
2018-03-31T01:50:34.772Z,77.26
2018-03-31T01:53:00.830Z,76.75
2018-03-31T01:55:26.926Z,77.51
2018-03-31T01:57:52.959Z,77.33
2018-03-31T02:00:18.993Z,77.39
2018-03-31T02:02:45.172Z,78.30
2018-03-31T02:05:11.205Z,78.49
2018-03-31T02:07:37.220Z,78.15
2018-03-31T02:10:03.449Z,80.01
2018-03-31T02:12:29.705Z,80.05
2018-03-31T02:14:55.789Z,79.59
2018-03-31T02:17:21.911Z,79.72
2018-03-31T02:19:50.923Z,79.31
2018-03-31T02:22:16.972Z,79.90
2018-03-31T02:24:43.063Z,79.04
2018-03-31T02:27:10.940Z,80.23
2018-03-31T02:29:37.145Z,80.93
2018-03-31T02:32:03.200Z,79.83
2018-03-31T02:34:29.225Z,79.29
2018-03-31T02:36:55.306Z,78.90
2018-03-31T02:39:21.342Z,78.54
2018-03-31T02:41:47.366Z,79.04
2018-03-31T02:44:16.701Z,79.42
2018-03-31T02:46:42.859Z,79.22
2018-03-31T02:49:08.903Z,79.55
2018-03-31T02:51:34.949Z,79.92
2018-03-31T02:54:01.052Z,79.53
2018-03-31T02:56:27.136Z,79.68
2018-03-31T02:58:53.214Z,79.08
2018-03-31T03:01:19.342Z,79.28
2018-03-31T03:03:45.387Z,79.33
2018-03-31T03:06:11.789Z,79.81
2018-03-31T03:08:37.816Z,79.79
2018-03-31T03:11:03.840Z,79.58
2018-03-31T03:13:29.937Z,78.82
2018-03-31T03:15:55.974Z,79.25
2018-03-31T03:18:22.055Z,79.09
2018-03-31T03:20:51.485Z,78.74
2018-03-31T03:23:17.526Z,78.47
2018-03-31T03:25:43.603Z,79.61
2018-03-31T03:28:09.685Z,79.77
2018-03-31T03:30:35.884Z,80.65
2018-03-31T03:33:01.924Z,79.89
2018-03-31T03:35:27.957Z,79.41
2018-03-31T03:37:54.023Z,78.95
2018-03-31T03:40:20.060Z,78.22
2018-03-31T03:42:46.936Z,78.21
2018-03-31T03:45:13.289Z,77.98
2018-03-31T03:47:39.384Z,78.74
2018-03-31T03:50:05.416Z,78.38
2018-03-31T03:52:31.666Z,77.87
2018-03-31T03:54:57.721Z,79.05
2018-03-31T03:57:23.763Z,79.52
2018-03-31T03:59:49.903Z,79.26
2018-03-31T04:02:15.944Z,78.36
2018-03-31T04:04:41.997Z,79.70
2018-03-31T04:07:08.326Z,80.96
2018-03-31T04:09:34.421Z,80.69
2018-03-31T04:12:00.561Z,80.91
2018-03-31T04:14:26.602Z,80.38
2018-03-31T04:16:52.674Z,79.44
2018-03-31T04:19:18.825Z,80.30
2018-03-31T04:21:44.905Z,81.06
2018-03-31T04:24:10.979Z,80.01
2018-03-31T04:26:37.036Z,79.96
2018-03-31T04:29:03.112Z,80.29
2018-03-31T04:31:29.164Z,80.10
2018-03-31T04:33:55.326Z,79.57
2018-03-31T04:36:21.418Z,79.86
2018-03-31T04:38:47.497Z,80.28
2018-03-31T04:41:13.740Z,79.50
2018-03-31T04:43:40.715Z,78.71
2018-03-31T04:46:06.966Z,78.68
2018-03-31T04:48:33.120Z,77.69
2018-03-31T04:50:59.236Z,77.02
2018-03-31T04:53:25.312Z,77.98
2018-03-31T04:55:51.430Z,78.82
2018-03-31T04:58:17.541Z,78.81
2018-03-31T05:00:43.614Z,78.35
2018-03-31T05:03:09.945Z,78.29
2018-03-31T05:05:36.075Z,77.84
2018-03-31T05:08:02.351Z,77.23
2018-03-31T05:10:28.660Z,77.27
2018-03-31T05:12:54.772Z,78.31
2018-03-31T05:15:20.926Z,80.65
2018-03-31T05:17:47.029Z,80.01
2018-03-31T05:20:13.170Z,78.51
2018-03-31T05:22:39.255Z,78.32
2018-03-31T05:25:05.359Z,79.89
2018-03-31T05:27:31.570Z,79.61
2018-03-31T05:29:57.716Z,79.07
2018-03-31T05:32:23.961Z,77.62
2018-03-31T05:34:50.126Z,77.42
2018-03-31T05:37:16.300Z,76.45
2018-03-31T05:39:42.516Z,76.41
2018-03-31T05:45:11.273Z,75.84
2018-03-31T05:47:37.468Z,75.63
2018-03-31T05:50:03.583Z,75.46
2018-03-31T05:52:29.851Z,75.87
2018-03-31T05:54:55.933Z,74.88
2018-03-31T05:57:22.010Z,74.75
2018-03-31T05:59:48.214Z,74.59
2018-03-31T06:02:14.726Z,73.88
2018-03-31T06:04:40.994Z,73.28
2018-03-31T06:07:07.305Z,73.48
2018-03-31T06:09:33.369Z,73.34
2018-03-31T06:11:59.593Z,72.69
2018-03-31T06:14:26.150Z,72.85
2018-03-31T06:16:52.372Z,71.83
2018-03-31T06:19:18.549Z,71.38
2018-03-31T06:21:44.717Z,71.63
2018-03-31T06:24:10.812Z,70.82
2018-03-31T06:26:37.033Z,70.37
2018-03-31T06:29:03.181Z,69.15
2018-03-31T06:31:29.219Z,67.63
2018-03-31T06:33:58.529Z,67.82
2018-03-31T06:36:24.604Z,71.20
2018-03-31T06:38:50.697Z,72.71
2018-03-31T06:41:16.914Z,73.84
2018-03-31T06:43:43.102Z,71.93
2018-03-31T06:46:09.357Z,71.41
2018-03-31T06:48:35.494Z,71.38
2018-03-31T06:51:01.622Z,71.97
2018-03-31T06:53:27.822Z,71.73
2018-03-31T06:55:54.009Z,71.06
2018-03-31T06:58:20.115Z,70.90
2018-03-31T07:00:46.268Z,69.88
2018-03-31T07:03:12.585Z,69.65
2018-03-31T07:05:38.704Z,67.84
2018-03-31T07:08:04.756Z,65.40
2018-03-31T07:10:30.864Z,63.12
2018-03-31T07:12:56.978Z,61.86
2018-03-31T07:15:23.020Z,63.81
2018-03-31T07:17:49.200Z,63.38
2018-03-31T07:20:15.362Z,63.21
2018-03-31T07:22:41.487Z,63.62
2018-03-31T07:25:07.576Z,64.29
2018-03-31T07:27:33.698Z,64.19
2018-03-31T07:29:59.856Z,65.42
2018-03-31T07:32:26.023Z,64.69
2018-03-31T07:34:52.230Z,65.58
2018-03-31T07:37:18.415Z,65.06
2018-03-31T07:39:44.588Z,64.55
2018-03-31T07:42:10.690Z,64.03
2018-03-31T07:44:37.106Z,63.70
2018-03-31T07:47:05.667Z,64.27
2018-03-31T07:49:31.862Z,64.12
2018-03-31T07:51:58.024Z,63.68
2018-03-31T07:54:24.117Z,62.00
2018-03-31T07:56:50.325Z,61.26
2018-03-31T07:59:16.473Z,61.92
2018-03-31T08:01:42.804Z,61.58
2018-03-31T08:04:08.906Z,60.81
2018-03-31T08:06:35.094Z,59.70
2018-03-31T08:09:01.266Z,58.93
2018-03-31T08:11:27.492Z,58.22
2018-03-31T08:13:53.782Z,58.95
2018-03-31T08:16:19.918Z,58.74
2018-03-31T08:18:46.010Z,57.15
2018-03-31T08:21:12.126Z,57.84
2018-03-31T08:23:38.232Z,57.12
2018-03-31T08:26:04.393Z,57.93
2018-03-31T08:28:30.517Z,58.55
2018-03-31T08:30:56.602Z,57.92
2018-03-31T08:33:22.733Z,57.97
2018-03-31T08:35:51.524Z,57.59
2018-03-31T08:38:17.636Z,56.57
2018-03-31T08:40:43.865Z,55.03
2018-03-31T08:43:09.971Z,54.63
2018-03-31T08:45:36.136Z,54.33
2018-03-31T08:48:02.240Z,55.31
2018-03-31T08:50:28.288Z,55.04
2018-03-31T08:52:54.458Z,54.82
2018-03-31T08:55:20.624Z,52.70
2018-03-31T08:57:46.674Z,54.44
2018-03-31T09:00:12.733Z,53.64
2018-03-31T09:02:38.900Z,53.44
2018-03-31T09:05:04.949Z,52.74
2018-03-31T09:07:30.980Z,50.61
2018-03-31T09:09:57.134Z,50.06
2018-03-31T09:12:23.181Z,50.15
2018-03-31T09:14:49.261Z,50.69
2018-03-31T09:17:15.300Z,48.78
2018-03-31T09:19:41.397Z,50.23
2018-03-31T09:22:07.602Z,48.63
2018-03-31T09:24:33.659Z,48.86
2018-03-31T09:26:59.845Z,51.06
2018-03-31T09:29:25.888Z,49.86
2018-03-31T09:31:52.142Z,49.79
2018-03-31T09:34:21.272Z,49.26
2018-03-31T09:36:47.330Z,48.37
2018-03-31T09:39:13.394Z,48.66
2018-03-31T09:41:39.554Z,48.62
2018-03-31T09:44:05.590Z,49.11
2018-03-31T09:46:31.757Z,48.40
2018-03-31T09:48:57.833Z,49.54
2018-03-31T09:51:23.932Z,50.76
2018-03-31T09:53:50.342Z,52.01
2018-03-31T09:56:16.591Z,51.13
2018-03-31T09:58:42.686Z,51.67
2018-03-31T10:01:08.894Z,53.74
2018-03-31T10:03:34.941Z,53.79
2018-03-31T10:06:04.102Z,53.43
2018-03-31T10:08:30.168Z,52.99
2018-03-31T10:10:56.434Z,52.79
2018-03-31T10:13:22.668Z,52.88
2018-03-31T10:15:48.738Z,51.71
2018-03-31T10:18:14.818Z,51.72
2018-03-31T10:20:40.922Z,52.38
2018-03-31T10:23:07.002Z,52.85
2018-03-31T10:25:33.048Z,52.62
2018-03-31T10:27:59.256Z,52.62
2018-03-31T10:30:25.291Z,52.61
2018-03-31T10:32:51.416Z,51.34
2018-03-31T10:35:17.596Z,51.58
2018-03-31T10:37:43.685Z,48.82
2018-03-31T10:40:09.774Z,50.28
2018-03-31T10:42:35.897Z,50.57
2018-03-31T10:45:01.944Z,48.99
2018-03-31T10:47:28.040Z,48.87
2018-03-31T10:49:54.181Z,47.73
2018-03-31T10:52:20.280Z,48.59
2018-03-31T10:54:46.326Z,45.92
2018-03-31T10:57:12.536Z,46.24
2018-03-31T10:59:38.604Z,44.99
2018-03-31T11:02:04.801Z,43.53
2018-03-31T11:04:30.847Z,43.98
2018-03-31T11:06:56.891Z,42.87
2018-03-31T11:09:23.063Z,43.96
2018-03-31T11:11:49.113Z,44.06
2018-03-31T11:14:19.097Z,44.20
2018-03-31T11:16:45.137Z,44.09
2018-03-31T11:19:11.164Z,43.42
2018-03-31T11:21:37.372Z,44.07
2018-03-31T11:24:03.478Z,43.73
2018-03-31T11:26:29.721Z,43.49
2018-03-31T11:28:55.753Z,43.05
2018-03-31T11:31:22.022Z,42.29
2018-03-31T11:33:48.072Z,42.74
2018-03-31T11:36:14.152Z,43.70
2018-03-31T11:38:40.269Z,43.45
2018-03-31T11:41:06.387Z,41.99
2018-03-31T11:43:32.538Z,41.93
2018-03-31T11:45:58.619Z,42.04
2018-03-31T11:48:24.681Z,41.11
2018-03-31T11:50:50.724Z,40.10
2018-03-31T11:53:16.957Z,39.87
2018-03-31T11:55:42.989Z,40.07
2018-03-31T11:58:09.062Z,39.75
2018-03-31T12:00:35.317Z,39.09
2018-03-31T12:03:01.372Z,39.43
2018-03-31T12:05:27.422Z,38.98
2018-03-31T12:07:53.525Z,39.05
2018-03-31T12:10:19.611Z,39.95
2018-03-31T12:12:45.641Z,38.24
2018-03-31T12:15:11.743Z,40.05
2018-03-31T12:17:37.893Z,38.07
2018-03-31T12:20:03.944Z,36.08
2018-03-31T12:22:29.998Z,35.88
2018-03-31T12:24:56.157Z,37.22
2018-03-31T12:27:22.293Z,35.80
2018-03-31T12:29:48.329Z,32.46
2018-03-31T12:32:14.473Z,32.33
2018-03-31T12:34:40.563Z,32.14
2018-03-31T12:37:06.689Z,31.31
2018-03-31T12:39:32.772Z,32.22
2018-03-31T12:41:58.996Z,30.98
2018-03-31T12:44:25.185Z,30.43
2018-03-31T12:46:51.253Z,30.55
2018-03-31T12:49:17.360Z,29.58
2018-03-31T12:51:43.478Z,29.87
2018-03-31T12:54:09.512Z,31.15
2018-03-31T12:56:35.724Z,30.81
2018-03-31T12:59:01.852Z,30.80
2018-03-31T13:01:27.976Z,29.31
2018-03-31T13:03:54.008Z,29.26
2018-03-31T13:06:20.112Z,30.24
2018-03-31T13:08:46.145Z,30.75
2018-03-31T13:11:12.233Z,30.88
2018-03-31T13:13:38.359Z,30.91
2018-03-31T13:16:05.206Z,29.89
2018-03-31T13:18:31.281Z,30.75
2018-03-31T13:20:57.415Z,30.00
2018-03-31T13:23:23.431Z,27.26
2018-03-31T13:25:49.477Z,27.74
2018-03-31T13:28:15.539Z,26.55
2018-03-31T13:30:41.573Z,27.17
2018-03-31T13:33:07.663Z,28.25
2018-03-31T13:35:33.820Z,27.45
2018-03-31T13:37:59.944Z,26.69
2018-03-31T13:40:26.136Z,25.58
2018-03-31T13:42:52.232Z,25.59
2018-03-31T13:45:18.294Z,24.32
2018-03-31T13:47:44.388Z,23.57
2018-03-31T13:50:12.157Z,25.21
2018-03-31T13:52:38.215Z,24.50
2018-03-31T13:55:04.265Z,25.05
2018-03-31T13:57:30.481Z,28.10
2018-03-31T13:59:56.582Z,25.62
2018-03-31T14:02:22.715Z,24.64
2018-03-31T14:04:48.739Z,23.46
2018-03-31T14:07:14.767Z,23.44
2018-03-31T14:09:40.857Z,23.43
2018-03-31T14:12:07.237Z,23.63
2018-03-31T14:14:33.369Z,22.64
2018-03-31T14:16:59.416Z,23.58
2018-03-31T14:19:25.585Z,22.53
2018-03-31T14:21:51.689Z,21.34
2018-03-31T14:24:17.754Z,21.27
2018-03-31T14:26:43.814Z,21.91
2018-03-31T14:29:09.904Z,22.82
2018-03-31T14:31:36.062Z,23.22
2018-03-31T14:34:02.155Z,24.17
2018-03-31T14:36:28.449Z,23.28
2018-03-31T14:38:54.532Z,22.93
2018-03-31T14:41:20.606Z,24.21
2018-03-31T14:43:46.833Z,24.54
2018-03-31T14:46:13.103Z,26.13
2018-03-31T14:48:39.160Z,25.28
2018-03-31T14:51:05.236Z,24.59
2018-03-31T14:53:31.301Z,25.24
2018-03-31T14:55:57.395Z,27.50
2018-03-31T14:58:23.645Z,29.14
2018-03-31T15:00:49.726Z,29.67
2018-03-31T15:03:15.818Z,32.09
2018-03-31T15:05:41.973Z,32.59
2018-03-31T15:08:08.080Z,33.61
2018-03-31T15:10:34.137Z,34.41
2018-03-31T15:13:00.223Z,35.54
2018-03-31T15:15:27.195Z,34.15
2018-03-31T15:17:53.223Z,34.95
2018-03-31T15:20:19.388Z,36.31
2018-03-31T15:22:45.581Z,35.52
2018-03-31T15:25:11.962Z,36.86
2018-03-31T15:27:38.215Z,36.48
2018-03-31T15:30:04.332Z,36.83
2018-03-31T15:32:30.396Z,37.27
2018-03-31T15:34:56.502Z,38.13
2018-03-31T15:37:22.674Z,37.94
2018-03-31T15:39:48.712Z,37.87
2018-03-31T15:42:14.780Z,39.08
2018-03-31T15:44:40.933Z,39.03
2018-03-31T15:47:06.972Z,39.83
2018-03-31T15:49:33.022Z,39.43
2018-03-31T15:51:59.501Z,40.84
2018-03-31T15:54:25.794Z,40.20
2018-03-31T15:56:51.912Z,40.23
2018-03-31T15:59:18.293Z,40.33
2018-03-31T16:01:44.393Z,40.03
2018-03-31T16:04:10.401Z,39.92
2018-03-31T16:06:36.565Z,40.13
2018-03-31T16:09:02.746Z,41.13
2018-03-31T16:11:28.780Z,41.98
2018-03-31T16:13:56.723Z,41.73
2018-03-31T16:16:23.352Z,41.64
2018-03-31T16:18:49.384Z,42.86
2018-03-31T16:21:15.494Z,42.48
2018-03-31T16:23:41.589Z,42.58
2018-03-31T16:26:09.139Z,43.65
2018-03-31T16:28:35.871Z,44.23
2018-03-31T16:31:01.902Z,44.14
2018-03-31T16:33:27.976Z,43.43
2018-03-31T16:35:54.157Z,44.35
2018-03-31T16:38:20.187Z,45.02
2018-03-31T16:40:46.261Z,44.51
2018-03-31T16:43:12.398Z,44.24
2018-03-31T16:45:38.545Z,44.35
2018-03-31T16:48:04.707Z,44.60
2018-03-31T16:50:30.821Z,44.80
2018-03-31T16:52:57.005Z,44.62
2018-03-31T16:55:23.136Z,44.83
2018-03-31T16:57:49.232Z,44.50
2018-03-31T17:00:15.656Z,44.73
2018-03-31T17:02:41.751Z,45.35
2018-03-31T17:05:07.917Z,44.99
2018-03-31T17:07:34.000Z,45.81
2018-03-31T17:10:00.070Z,46.04
2018-03-31T17:12:26.119Z,45.93
2018-03-31T17:14:52.361Z,46.73
2018-03-31T17:17:18.405Z,46.93
2018-03-31T17:19:44.466Z,47.99
2018-03-31T17:22:11.054Z,48.90
2018-03-31T17:24:37.136Z,48.90
2018-03-31T17:27:03.229Z,50.29
2018-03-31T17:29:29.289Z,51.82
2018-03-31T17:31:55.470Z,52.81
2018-03-31T17:34:21.569Z,53.33
2018-03-31T17:36:47.626Z,53.24
2018-03-31T17:39:13.793Z,54.16
2018-03-31T17:41:39.809Z,55.06
2018-03-31T17:44:05.914Z,55.88
2018-03-31T17:46:31.954Z,56.60
2018-03-31T17:48:58.092Z,56.81
2018-03-31T17:51:24.221Z,57.09
2018-03-31T17:53:50.236Z,57.44
2018-03-31T17:56:16.275Z,57.92
2018-03-31T17:58:42.418Z,58.02
2018-03-31T18:01:08.498Z,58.05
2018-03-31T18:03:34.556Z,58.09
2018-03-31T18:06:00.573Z,58.03
2018-03-31T18:08:26.598Z,58.62
2018-03-31T18:10:52.676Z,59.26
2018-03-31T18:13:18.708Z,59.01
2018-03-31T18:15:44.933Z,59.17
2018-03-31T18:18:10.998Z,58.76
2018-03-31T18:20:40.034Z,59.84
2018-03-31T18:23:06.176Z,60.42
2018-03-31T18:25:32.212Z,61.56
2018-03-31T18:28:00.827Z,61.79
2018-03-31T18:30:26.861Z,62.34
2018-03-31T18:32:52.972Z,62.36
2018-03-31T18:35:22.127Z,62.52
2018-03-31T18:37:48.198Z,62.36
2018-03-31T18:40:14.280Z,63.30
2018-03-31T18:42:40.381Z,63.40
2018-03-31T18:45:06.517Z,64.14
2018-03-31T18:47:32.609Z,64.67
2018-03-31T18:49:58.810Z,65.22
2018-03-31T18:52:24.853Z,65.42
2018-03-31T18:54:50.991Z,65.95
2018-03-31T18:57:17.013Z,66.10
2018-03-31T18:59:43.037Z,66.35
2018-03-31T19:02:09.174Z,66.59
2018-03-31T19:04:35.289Z,66.82
2018-03-31T19:07:01.350Z,67.00
2018-03-31T19:09:27.382Z,66.86
2018-03-31T19:11:53.569Z,67.17
2018-03-31T19:14:19.593Z,67.29
2018-03-31T19:16:51.545Z,67.49
2018-03-31T19:19:17.629Z,67.47
2018-03-31T19:21:43.672Z,67.62
2018-03-31T19:24:09.718Z,67.45
2018-03-31T19:26:35.800Z,67.71
2018-03-31T19:29:01.841Z,68.03
2018-03-31T19:31:27.933Z,67.94
2018-03-31T19:33:54.078Z,68.33
2018-03-31T19:36:20.120Z,68.30
2018-03-31T19:38:46.138Z,68.57
2018-03-31T19:41:12.272Z,68.72
2018-03-31T19:43:38.308Z,68.83
2018-03-31T19:46:04.574Z,69.26
2018-03-31T19:48:30.607Z,69.32
2018-03-31T19:50:59.376Z,69.40
2018-03-31T19:53:25.675Z,69.55
2018-03-31T19:55:51.709Z,69.57
2018-03-31T19:58:17.730Z,69.80
2018-03-31T20:00:43.790Z,69.82
2018-03-31T20:03:09.819Z,69.95
2018-03-31T20:05:35.973Z,70.24
2018-03-31T20:08:02.102Z,70.39
2018-03-31T20:10:28.126Z,70.39
2018-03-31T20:12:54.224Z,70.52
2018-03-31T20:15:20.270Z,70.79
2018-03-31T20:17:46.292Z,70.32
2018-03-31T20:20:12.371Z,70.94
2018-03-31T20:22:38.406Z,70.35
2018-03-31T20:25:04.512Z,70.15
2018-03-31T20:27:30.544Z,70.83
2018-03-31T20:29:56.572Z,71.12
2018-03-31T20:32:22.725Z,71.05
2018-03-31T20:34:48.785Z,71.13
2018-03-31T20:37:14.830Z,71.60
2018-03-31T20:39:40.901Z,71.71
2018-03-31T20:42:06.918Z,71.90
2018-03-31T20:44:32.942Z,71.81
2018-03-31T20:46:59.067Z,71.74
2018-03-31T20:49:25.110Z,71.83
2018-03-31T20:51:52.214Z,71.80
2018-03-31T20:54:18.310Z,71.92
2018-03-31T20:56:44.342Z,71.76
2018-03-31T20:59:13.372Z,71.71
2018-03-31T21:01:39.422Z,71.81
2018-03-31T21:04:05.445Z,71.21
2018-03-31T21:06:31.472Z,71.29
2018-03-31T21:08:57.601Z,71.23
2018-03-31T21:11:23.632Z,71.26
2018-03-31T21:13:49.656Z,71.38
2018-03-31T21:16:15.724Z,71.20
2018-03-31T21:18:41.774Z,71.55
2018-03-31T21:21:07.812Z,71.58
2018-03-31T21:23:33.939Z,71.36
2018-03-31T21:26:00.101Z,71.25
2018-03-31T21:28:26.205Z,71.34
2018-03-31T21:30:52.245Z,71.31
2018-03-31T21:33:18.349Z,71.62
2018-03-31T21:35:44.432Z,71.15
2018-03-31T21:38:10.431Z,71.20
2018-03-31T21:40:36.543Z,71.07
2018-03-31T21:43:02.589Z,71.26
2018-03-31T21:45:28.621Z,71.64
2018-03-31T21:47:54.738Z,71.58
2018-03-31T21:50:20.964Z,71.62
2018-03-31T21:52:46.985Z,71.84
2018-03-31T21:55:13.228Z,71.84
2018-03-31T21:57:39.257Z,71.94
2018-03-31T22:00:05.280Z,71.77
2018-03-31T22:02:31.341Z,72.00
2018-03-31T22:04:57.359Z,72.14
2018-03-31T22:07:23.387Z,72.07
2018-03-31T22:09:49.490Z,71.90
2018-03-31T22:12:15.517Z,71.94
2018-03-31T22:17:43.653Z,71.99
2018-03-31T22:20:09.819Z,72.19
2018-03-31T22:22:35.940Z,72.35
2018-03-31T22:25:02.072Z,72.55
2018-03-31T22:27:28.113Z,72.38
2018-03-31T22:29:54.135Z,72.21
2018-03-31T22:32:20.322Z,71.99
2018-03-31T22:34:46.361Z,72.05
2018-03-31T22:37:12.412Z,72.07
2018-03-31T22:39:38.528Z,72.01
2018-03-31T22:42:04.520Z,72.02
2018-03-31T22:44:30.541Z,71.79
2018-03-31T22:46:56.657Z,71.78
2018-03-31T22:49:22.673Z,72.21
2018-03-31T22:51:48.696Z,72.11
2018-03-31T22:54:14.829Z,72.23
2018-03-31T22:56:40.912Z,71.91
2018-03-31T22:59:06.992Z,71.88
2018-03-31T23:01:33.253Z,71.98
2018-03-31T23:03:59.429Z,71.87
2018-03-31T23:06:25.766Z,71.81
2018-03-31T23:08:51.799Z,72.40
2018-03-31T23:11:17.882Z,72.51
2018-03-31T23:13:43.909Z,72.59
2018-03-31T23:16:09.926Z,72.67
2018-03-31T23:18:36.041Z,72.99
2018-03-31T23:21:02.117Z,73.14
2018-03-31T23:23:28.157Z,73.09
2018-03-31T23:25:57.387Z,73.11
2018-03-31T23:28:23.509Z,73.30
2018-03-31T23:30:49.517Z,73.36
2018-03-31T23:33:15.587Z,73.37
2018-03-31T23:35:41.646Z,73.18
2018-03-31T23:38:07.662Z,73.04
2018-03-31T23:40:33.692Z,73.39
2018-03-31T23:42:59.812Z,73.12
2018-03-31T23:45:26.072Z,73.24
2018-03-31T23:47:52.114Z,73.10
2018-03-31T23:50:18.168Z,73.23
2018-03-31T23:52:44.184Z,73.14
2018-03-31T23:55:10.202Z,73.25
2018-03-31T23:57:36.251Z,73.58
